createdAt,value
2023-04-05T00:00:54.391Z,-1.30
2023-04-05T00:03:22.691Z,-1.40
2023-04-05T00:05:50.369Z,-1.40
2023-04-05T00:08:24.152Z,-1.50
2023-04-05T00:10:51.815Z,-1.50
2023-04-05T00:13:19.506Z,-1.60
2023-04-05T00:15:49.447Z,-1.60
2023-04-05T00:18:21.948Z,-1.70
2023-04-05T00:20:51.443Z,-1.70
2023-04-05T00:23:21.386Z,-1.80
2023-04-05T00:29:49.294Z,-1.90
2023-04-05T00:32:17.204Z,-1.80
2023-04-05T00:34:44.761Z,-1.90
2023-04-05T00:37:12.466Z,-1.80
2023-04-05T00:39:40.447Z,-1.70
2023-04-05T00:42:09.311Z,-1.60
2023-04-05T00:44:36.980Z,-1.50
2023-04-05T00:47:06.685Z,-1.60
2023-04-05T00:49:36.646Z,-1.60
2023-04-05T00:52:04.423Z,-1.50
2023-04-05T00:54:31.939Z,-1.60
2023-04-05T00:57:00.486Z,-1.60
2023-04-05T00:59:31.555Z,-1.50
2023-04-05T01:02:13.894Z,-1.50
2023-04-05T01:07:43.625Z,-1.50
2023-04-05T01:10:17.817Z,-1.40
2023-04-05T01:12:46.307Z,-1.50
2023-04-05T01:15:14.203Z,-1.50
2023-04-05T01:17:42.316Z,-1.50
2023-04-05T01:20:12.070Z,-1.50
2023-04-05T01:23:03.839Z,-1.50
2023-04-05T01:26:06.129Z,-1.50
2023-04-05T01:29:22.296Z,-1.50
2023-04-05T01:32:21.722Z,-1.60
2023-04-05T01:35:23.493Z,-1.60
2023-04-05T01:38:05.591Z,-1.70
2023-04-05T01:40:35.684Z,-1.70
2023-04-05T01:43:03.792Z,-1.70
2023-04-05T01:45:32.129Z,-1.60
2023-04-05T01:47:59.647Z,-1.60
2023-04-05T01:50:27.221Z,-1.60
2023-04-05T01:52:54.679Z,-1.50
2023-04-05T01:55:22.132Z,-1.40
2023-04-05T01:57:49.674Z,-1.40
2023-04-05T02:00:17.219Z,-1.50
2023-04-05T02:02:44.697Z,-1.50
2023-04-05T02:05:12.259Z,-1.50
2023-04-05T02:07:39.719Z,-1.50
2023-04-05T02:10:08.481Z,-1.50
2023-04-05T02:12:36.084Z,-1.60
2023-04-05T02:15:04.255Z,-1.70
2023-04-05T02:17:40.064Z,-2.00
2023-04-05T02:20:10.671Z,-2.30
2023-04-05T02:22:40.209Z,-2.60
2023-04-05T02:25:11.270Z,-2.90
2023-04-05T02:27:39.055Z,-3.20
2023-04-05T02:30:07.419Z,-3.40
2023-04-05T02:32:34.923Z,-3.40
2023-04-05T02:35:02.923Z,-3.40
2023-04-05T02:37:30.596Z,-3.30
2023-04-05T02:39:58.081Z,-3.20
2023-04-05T02:42:25.751Z,-3.30
2023-04-05T02:44:53.581Z,-3.40
2023-04-05T02:47:21.965Z,-3.50
2023-04-05T02:49:50.062Z,-3.60
2023-04-05T02:52:17.661Z,-3.70
2023-04-05T02:54:46.937Z,-3.70
2023-04-05T02:57:14.940Z,-3.60
2023-04-05T02:59:42.915Z,-3.60
2023-04-05T03:02:11.245Z,-3.50
2023-04-05T03:04:38.903Z,-3.40
2023-04-05T03:07:06.432Z,-3.30
2023-04-05T03:09:34.889Z,-3.30
2023-04-05T03:12:06.330Z,-3.30
2023-04-05T03:14:34.670Z,-3.30
2023-04-05T03:17:02.455Z,-3.30
2023-04-05T03:19:30.211Z,-3.20
2023-04-05T03:21:58.354Z,-3.10
2023-04-05T03:24:25.794Z,-3.00
2023-04-05T03:26:53.601Z,-2.80
2023-04-05T03:29:21.218Z,-2.70
2023-04-05T03:31:50.880Z,-2.70
2023-04-05T03:34:18.484Z,-2.80
2023-04-05T03:36:47.416Z,-2.80
2023-04-05T03:39:15.015Z,-2.80
2023-04-05T03:41:42.685Z,-2.80
2023-04-05T03:44:10.995Z,-2.80
2023-04-05T03:46:38.781Z,-2.80
2023-04-05T03:49:07.478Z,-2.80
2023-04-05T03:51:35.096Z,-2.70
2023-04-05T03:54:02.531Z,-2.60
2023-04-05T03:56:30.042Z,-2.60
2023-04-05T03:58:57.775Z,-2.60
2023-04-05T04:03:53.360Z,-2.80
2023-04-05T04:06:22.071Z,-3.20
2023-04-05T04:08:49.584Z,-3.60
2023-04-05T04:11:17.089Z,-3.90
2023-04-05T04:13:44.659Z,-4.10
2023-04-05T04:16:12.165Z,-4.20
2023-04-05T04:18:39.683Z,-4.40
2023-04-05T04:21:07.275Z,-4.30
2023-04-05T04:23:38.769Z,-4.30
2023-04-05T04:26:06.522Z,-4.20
2023-04-05T04:28:39.400Z,-4.30
2023-04-05T04:31:13.731Z,-4.40
2023-04-05T04:33:43.806Z,-4.50
2023-04-05T04:36:13.979Z,-4.60
2023-04-05T04:38:43.131Z,-4.60
2023-04-05T04:41:15.651Z,-4.40
2023-04-05T04:43:44.105Z,-4.20
2023-04-05T04:46:15.461Z,-4.20
2023-04-05T04:48:43.275Z,-4.20
2023-04-05T04:51:10.849Z,-4.20
2023-04-05T04:53:38.394Z,-4.10
2023-04-05T04:56:09.601Z,-4.10
2023-04-05T04:58:37.124Z,-4.10
2023-04-05T05:01:11.647Z,-4.00
2023-04-05T05:03:39.227Z,-3.90
2023-04-05T05:06:07.405Z,-3.80
2023-04-05T05:08:35.346Z,-3.70
2023-04-05T05:11:02.924Z,-3.80
2023-04-05T05:13:30.678Z,-3.70
2023-04-05T05:15:59.240Z,-3.60
2023-04-05T05:18:27.342Z,-3.60
2023-04-05T05:20:54.951Z,-3.40
2023-04-05T05:23:22.636Z,-3.30
2023-04-05T05:25:50.162Z,-3.20
2023-04-05T05:28:19.906Z,-3.10
2023-04-05T05:30:47.514Z,-3.00
2023-04-05T05:33:15.068Z,-2.90
2023-04-05T05:35:42.581Z,-2.80
2023-04-05T05:38:11.918Z,-2.60
2023-04-05T05:40:41.525Z,-2.40
2023-04-05T05:43:10.755Z,-2.10
2023-04-05T05:45:38.323Z,-1.90
2023-04-05T05:48:06.152Z,-1.70
2023-04-05T05:50:33.697Z,-1.40
2023-04-05T05:53:01.847Z,-1.40
2023-04-05T05:55:29.367Z,-1.40
2023-04-05T05:57:56.991Z,-1.40
2023-04-05T06:00:24.664Z,-1.20
2023-04-05T06:02:53.349Z,-1.20
2023-04-05T06:05:21.082Z,-1.20
2023-04-05T06:07:48.600Z,-1.00
2023-04-05T06:10:16.125Z,-1.10
2023-04-05T06:12:43.664Z,-1.00
2023-04-05T06:15:11.969Z,-1.00
2023-04-05T06:17:42.586Z,-0.90
2023-04-05T06:20:13.752Z,-0.90
2023-04-05T06:22:41.569Z,-0.90
2023-04-05T06:25:10.311Z,-0.90
2023-04-05T06:27:37.800Z,-0.80
2023-04-05T06:30:06.472Z,-0.80
2023-04-05T06:32:33.988Z,-0.80
2023-04-05T06:35:04.068Z,-0.70
2023-04-05T06:37:31.643Z,-0.70
2023-04-05T06:39:59.983Z,-0.50
2023-04-05T06:42:28.174Z,-0.30
2023-04-05T06:44:55.955Z,-0.10
2023-04-05T06:47:23.490Z,0.00
2023-04-05T06:49:51.195Z,0.10
2023-04-05T06:52:18.825Z,0.20
2023-04-05T06:54:46.294Z,0.20
2023-04-05T06:57:13.752Z,0.30
2023-04-05T06:59:41.236Z,0.40
2023-04-05T07:02:08.907Z,0.70
2023-04-05T07:04:37.478Z,1.10
2023-04-05T07:07:06.692Z,1.20
2023-04-05T07:09:34.543Z,1.20
2023-04-05T07:12:06.838Z,1.40
2023-04-05T07:14:36.738Z,1.60
2023-04-05T07:17:06.584Z,1.70
2023-04-05T07:19:34.474Z,1.70
2023-04-05T07:22:02.292Z,1.70
2023-04-05T07:24:29.775Z,1.80
2023-04-05T07:26:57.372Z,2.00
2023-04-05T07:29:24.868Z,2.10
2023-04-05T07:31:52.444Z,2.20
2023-04-05T07:34:19.979Z,2.40
2023-04-05T07:36:47.396Z,2.60
2023-04-05T07:39:14.901Z,2.70
2023-04-05T07:41:43.218Z,2.70
2023-04-05T07:44:11.288Z,2.90
2023-04-05T07:46:39.518Z,3.00
2023-04-05T07:49:07.651Z,3.00
2023-04-05T07:51:37.601Z,2.80
2023-04-05T07:54:06.318Z,2.80
2023-04-05T07:56:33.868Z,2.90
2023-04-05T07:59:01.731Z,3.00
2023-04-05T08:01:29.387Z,3.30
2023-04-05T08:04:00.120Z,3.00
2023-04-05T08:06:28.074Z,2.50
2023-04-05T08:08:57.339Z,2.30
2023-04-05T08:11:26.310Z,2.30
2023-04-05T08:13:54.612Z,2.10
2023-04-05T08:16:22.369Z,2.30
2023-04-05T08:18:50.154Z,2.70
2023-04-05T08:21:18.709Z,2.90
2023-04-05T08:23:46.505Z,3.00
2023-04-05T08:26:14.644Z,2.90
2023-04-05T08:28:42.302Z,3.20
2023-04-05T08:31:11.204Z,3.50
2023-04-05T08:33:40.066Z,3.90
2023-04-05T08:36:11.985Z,4.10
2023-04-05T08:38:40.067Z,4.50
2023-04-05T08:41:21.133Z,4.90
2023-04-05T08:44:03.231Z,5.70
2023-04-05T08:46:35.384Z,5.80
2023-04-05T08:49:08.863Z,6.00
2023-04-05T08:51:39.986Z,5.90
2023-04-05T08:54:07.851Z,5.90
2023-04-05T08:56:36.648Z,6.20
2023-04-05T08:59:11.037Z,5.80
2023-04-05T09:01:43.968Z,4.40
2023-04-05T09:04:21.824Z,4.50
2023-04-05T09:06:52.429Z,4.50
2023-04-05T09:09:21.852Z,4.50
2023-04-05T09:11:50.480Z,4.70
2023-04-05T09:14:19.145Z,4.70
2023-04-05T09:16:47.027Z,4.80
2023-04-05T09:19:14.906Z,4.80
2023-04-05T09:22:06.413Z,4.60
2023-04-05T09:24:52.085Z,4.50
2023-04-05T09:27:20.660Z,4.40
2023-04-05T09:29:51.259Z,4.60
2023-04-05T09:32:24.749Z,5.00
2023-04-05T09:34:54.412Z,5.30
2023-04-05T09:37:22.717Z,5.00
2023-04-05T09:40:03.079Z,4.80
2023-04-05T09:42:45.134Z,4.20
2023-04-05T09:45:13.793Z,4.30
2023-04-05T09:47:42.326Z,4.30
2023-04-05T09:50:15.881Z,4.70
2023-04-05T09:52:44.862Z,5.30
2023-04-05T09:55:13.452Z,5.50
2023-04-05T09:57:44.076Z,5.80
2023-04-05T10:00:23.207Z,5.90
2023-04-05T10:02:56.125Z,6.20
2023-04-05T10:05:27.648Z,6.70
2023-04-05T10:07:56.873Z,7.10
2023-04-05T10:10:25.544Z,7.00
2023-04-05T10:12:54.693Z,6.90
2023-04-05T10:15:23.786Z,7.00
2023-04-05T10:18:00.838Z,6.90
2023-04-05T10:20:30.518Z,6.50
2023-04-05T10:23:14.100Z,6.20
2023-04-05T10:25:53.765Z,6.10
2023-04-05T10:28:34.900Z,6.20
2023-04-05T10:31:37.688Z,6.60
2023-04-05T10:34:07.538Z,6.90
2023-04-05T10:36:50.653Z,7.00
2023-04-05T10:39:27.298Z,7.20
2023-04-05T10:42:08.208Z,7.20
2023-04-05T10:44:37.920Z,7.10
2023-04-05T10:47:07.422Z,6.40
2023-04-05T10:49:41.430Z,6.10
2023-04-05T10:52:10.012Z,5.90
2023-04-05T10:54:38.715Z,6.10
2023-04-05T10:57:09.726Z,5.90
2023-04-05T10:59:47.003Z,5.90
2023-04-05T11:02:15.584Z,5.70
2023-04-05T11:04:44.140Z,5.40
2023-04-05T11:07:16.786Z,5.20
2023-04-05T11:09:57.747Z,5.10
2023-04-05T11:12:47.009Z,5.10
2023-04-05T11:15:34.856Z,5.20
2023-04-05T11:18:21.145Z,5.20
2023-04-05T11:21:25.098Z,5.00
2023-04-05T11:24:12.252Z,5.60
2023-04-05T11:26:48.585Z,6.50
2023-04-05T11:29:16.687Z,6.60
2023-04-05T11:32:12.477Z,7.40
2023-04-05T11:34:44.198Z,7.80
2023-04-05T11:37:12.077Z,8.40
2023-04-05T11:39:39.778Z,8.40
2023-04-05T11:42:12.540Z,8.10
2023-04-05T11:44:49.304Z,8.10
2023-04-05T11:47:23.911Z,9.00
2023-04-05T11:49:52.465Z,9.60
2023-04-05T11:52:22.054Z,9.60
2023-04-05T11:54:50.297Z,9.40
2023-04-05T11:57:23.412Z,9.40
2023-04-05T11:59:53.521Z,9.20
2023-04-05T12:02:22.109Z,8.50
2023-04-05T12:04:57.820Z,7.90
2023-04-05T12:07:32.726Z,7.20
2023-04-05T12:10:16.260Z,6.80
2023-04-05T12:12:47.727Z,6.20
2023-04-05T12:15:19.102Z,5.70
2023-04-05T12:17:54.750Z,5.30
2023-04-05T12:20:26.754Z,4.90
2023-04-05T12:22:56.816Z,4.80
2023-04-05T12:25:25.063Z,4.60
2023-04-05T12:27:53.488Z,4.30
2023-04-05T12:30:23.505Z,4.20
2023-04-05T12:32:55.905Z,4.10
2023-04-05T12:35:39.114Z,4.00
2023-04-05T12:38:08.247Z,3.90
2023-04-05T12:40:37.246Z,3.90
2023-04-05T12:43:07.321Z,4.50
2023-04-05T12:45:42.214Z,5.20
2023-04-05T12:48:22.420Z,5.80
2023-04-05T12:50:54.907Z,6.40
2023-04-05T12:53:28.567Z,6.40
2023-04-05T12:55:58.764Z,5.70
2023-04-05T12:58:37.877Z,5.30
2023-04-05T13:01:05.579Z,4.80
2023-04-05T13:03:33.190Z,4.30
2023-04-05T13:06:00.709Z,4.10
2023-04-05T13:08:28.183Z,3.90
2023-04-05T13:10:57.867Z,3.80
2023-04-05T13:13:25.994Z,3.60
2023-04-05T13:15:53.867Z,3.50
2023-04-05T13:18:21.726Z,3.40
2023-04-05T13:20:49.193Z,3.50
2023-04-05T13:23:16.650Z,3.70
2023-04-05T13:25:48.068Z,3.90
2023-04-05T13:28:15.549Z,4.50
2023-04-05T13:30:43.060Z,5.00
2023-04-05T13:33:10.643Z,5.40
2023-04-05T13:35:38.274Z,5.40
2023-04-05T13:38:06.114Z,5.90
2023-04-05T13:40:33.761Z,6.50
2023-04-05T13:43:01.481Z,6.40
2023-04-05T13:45:29.164Z,6.90
2023-04-05T13:47:56.764Z,7.60
2023-04-05T13:50:25.864Z,8.40
2023-04-05T13:52:53.376Z,10.10
2023-04-05T13:55:21.069Z,11.80
2023-04-05T13:57:48.572Z,13.10
2023-04-05T14:00:16.563Z,13.20
2023-04-05T14:02:45.354Z,12.40
2023-04-05T14:05:12.980Z,13.00
2023-04-05T14:07:40.628Z,13.20
2023-04-05T14:10:08.858Z,12.20
2023-04-05T14:12:36.392Z,11.00
2023-04-05T14:15:04.396Z,10.30
2023-04-05T14:17:31.952Z,9.80
2023-04-05T14:19:59.454Z,9.10
2023-04-05T14:22:26.964Z,8.50
2023-04-05T14:24:54.570Z,8.20
2023-04-05T14:27:27.176Z,7.80
2023-04-05T14:29:58.328Z,7.40
2023-04-05T14:32:26.419Z,7.20
2023-04-05T14:34:54.085Z,7.10
2023-04-05T14:37:21.565Z,7.10
2023-04-05T14:39:49.022Z,7.00
2023-04-05T14:42:16.553Z,7.00
2023-04-05T14:44:44.185Z,7.10
2023-04-05T14:47:11.684Z,7.20
2023-04-05T14:49:39.174Z,9.00
2023-04-05T14:52:06.762Z,9.70
2023-04-05T14:54:34.280Z,11.00
2023-04-05T14:57:01.808Z,12.50
2023-04-05T14:59:29.389Z,11.70
2023-04-05T15:01:56.958Z,10.90
2023-04-05T15:04:25.726Z,9.00
2023-04-05T15:06:53.545Z,8.70
2023-04-05T15:09:21.079Z,8.40
2023-04-05T15:11:49.133Z,8.30
2023-04-05T15:14:24.892Z,8.30
2023-04-05T15:16:59.028Z,8.00
2023-04-05T15:19:27.581Z,7.70
2023-04-05T15:21:55.137Z,7.70
2023-04-05T15:24:22.636Z,7.60
2023-04-05T15:26:50.238Z,7.30
2023-04-05T15:29:17.677Z,7.00
2023-04-05T15:31:45.258Z,6.80
2023-04-05T15:34:12.821Z,6.60
2023-04-05T15:36:40.450Z,6.60
2023-04-05T15:39:08.065Z,6.60
2023-04-05T15:41:35.626Z,6.70
2023-04-05T15:44:04.004Z,6.70
2023-04-05T15:46:31.762Z,6.70
2023-04-05T15:48:59.662Z,6.60
2023-04-05T15:51:27.600Z,6.50
2023-04-05T15:53:55.097Z,6.30
2023-04-05T15:56:22.553Z,6.20
2023-04-05T15:58:50.233Z,6.20
2023-04-05T16:01:17.824Z,6.00
2023-04-05T16:03:45.555Z,5.80
2023-04-05T16:06:13.041Z,5.50
2023-04-05T16:08:40.510Z,5.40
2023-04-05T16:11:11.011Z,5.30
2023-04-05T16:13:38.495Z,5.30
2023-04-05T16:16:06.917Z,5.20
2023-04-05T16:18:34.575Z,5.10
2023-04-05T16:21:02.270Z,5.00
2023-04-05T16:23:29.806Z,4.90
2023-04-05T16:25:57.280Z,4.90
2023-04-05T16:28:24.793Z,4.80
2023-04-05T16:30:52.425Z,4.50
2023-04-05T16:33:20.038Z,4.40
2023-04-05T16:35:48.772Z,4.30
2023-04-05T16:38:16.444Z,4.60
2023-04-05T16:40:44.494Z,4.70
2023-04-05T16:43:12.109Z,4.90
2023-04-05T16:45:39.940Z,4.90
2023-04-05T16:48:08.983Z,5.30
2023-04-05T16:50:37.608Z,5.30
2023-04-05T16:53:05.408Z,4.90
2023-04-05T16:55:32.897Z,4.50
2023-04-05T16:58:00.659Z,4.10
2023-04-05T17:00:28.206Z,3.70
2023-04-05T17:02:55.804Z,3.50
2023-04-05T17:05:23.320Z,3.20
2023-04-05T17:07:50.783Z,3.10
2023-04-05T17:10:18.404Z,2.90
2023-04-05T17:12:46.105Z,2.80
2023-04-05T17:15:13.646Z,2.70
2023-04-05T17:17:41.526Z,2.80
2023-04-05T17:20:10.111Z,2.80
2023-04-05T17:22:38.717Z,2.70
2023-04-05T17:25:06.809Z,2.70
2023-04-05T17:27:34.550Z,2.60
2023-04-05T17:30:02.140Z,2.50
2023-04-05T17:32:30.283Z,2.40
2023-04-05T17:34:57.795Z,2.20
2023-04-05T17:37:25.584Z,2.00
2023-04-05T17:39:53.098Z,1.80
2023-04-05T17:42:21.057Z,1.80
2023-04-05T17:44:48.519Z,1.70
2023-04-05T17:47:16.017Z,1.50
2023-04-05T17:49:43.576Z,1.20
2023-04-05T17:52:13.025Z,0.90
2023-04-05T17:54:41.113Z,0.80
2023-04-05T17:57:15.585Z,0.80
2023-04-05T17:59:43.621Z,0.80
2023-04-05T18:02:11.502Z,0.60
2023-04-05T18:04:40.530Z,0.50
2023-04-05T18:07:08.751Z,0.40
2023-04-05T18:09:38.562Z,0.40
2023-04-05T18:12:06.219Z,0.20
2023-04-05T18:14:33.798Z,0.20
2023-04-05T18:17:02.176Z,0.30
2023-04-05T18:19:29.880Z,0.40
2023-04-05T18:21:57.379Z,0.50
2023-04-05T18:24:25.326Z,0.50
2023-04-05T18:26:52.846Z,0.40
2023-04-05T18:29:20.658Z,0.30
2023-04-05T18:31:48.228Z,0.30
2023-04-05T18:34:16.590Z,0.40
2023-04-05T18:36:44.170Z,0.40
2023-04-05T18:39:12.148Z,0.20
2023-04-05T18:41:39.643Z,0.00
2023-04-05T18:44:09.070Z,-0.20
2023-04-05T18:46:36.600Z,-0.30
2023-04-05T18:49:04.415Z,-0.40
2023-04-05T18:51:33.352Z,-0.50
2023-04-05T18:54:01.045Z,-0.40
2023-04-05T18:56:28.550Z,-0.40
2023-04-05T18:58:56.507Z,-0.40
2023-04-05T19:01:24.028Z,-0.20
2023-04-05T19:03:51.724Z,-0.30
2023-04-05T19:06:19.242Z,-0.30
2023-04-05T19:08:48.230Z,-0.30
2023-04-05T19:11:17.416Z,-0.30
2023-04-05T19:13:45.974Z,-0.30
2023-04-05T19:16:13.582Z,-0.30
2023-04-05T19:18:41.030Z,-0.40
2023-04-05T19:21:08.994Z,-0.50
2023-04-05T19:23:37.038Z,-0.50
2023-04-05T19:26:04.534Z,-0.50
2023-04-05T19:28:32.385Z,-0.40
2023-04-05T19:31:00.016Z,-0.50
2023-04-05T19:33:30.974Z,-0.70
2023-04-05T19:35:58.962Z,-0.80
2023-04-05T19:38:26.490Z,-1.00
2023-04-05T19:40:54.196Z,-1.00
2023-04-05T19:43:21.656Z,-0.90
2023-04-05T19:45:56.086Z,-0.80
2023-04-05T19:48:41.600Z,-0.80
2023-04-05T19:51:11.437Z,-0.90
2023-04-05T19:53:51.122Z,-0.90
2023-04-05T19:56:31.293Z,-0.80
2023-04-05T19:59:33.433Z,-0.70
2023-04-05T20:02:03.305Z,-0.60
2023-04-05T20:04:34.631Z,-0.60
2023-04-05T20:07:04.014Z,-0.50
2023-04-05T20:09:31.530Z,-0.50
2023-04-05T20:12:02.665Z,-0.70
2023-04-05T20:14:42.021Z,-0.80
2023-04-05T20:17:12.604Z,-1.00
2023-04-05T20:19:41.999Z,-1.10
2023-04-05T20:22:10.103Z,-1.00
2023-04-05T20:24:40.894Z,-0.90
2023-04-05T20:27:08.390Z,-1.00
2023-04-05T20:29:36.454Z,-1.20
2023-04-05T20:32:06.122Z,-1.20
2023-04-05T20:34:36.637Z,-1.20
2023-04-05T20:37:11.389Z,-1.00
2023-04-05T20:39:38.953Z,-0.80
2023-04-05T20:42:07.773Z,-0.80
2023-04-05T20:44:35.240Z,-1.10
2023-04-05T20:47:02.794Z,-1.20
2023-04-05T20:49:30.257Z,-1.40
2023-04-05T20:51:58.229Z,-1.20
2023-04-05T20:54:26.058Z,-1.10
2023-04-05T20:56:53.501Z,-1.00
2023-04-05T20:59:21.570Z,-1.00
2023-04-05T21:01:49.450Z,-1.00
2023-04-05T21:04:16.986Z,-0.90
2023-04-05T21:06:44.584Z,-0.80
2023-04-05T21:09:12.188Z,-0.80
2023-04-05T21:11:39.736Z,-1.00
2023-04-05T21:14:07.381Z,-1.00
2023-04-05T21:16:34.855Z,-1.10
2023-04-05T21:19:02.389Z,-1.20
2023-04-05T21:21:29.825Z,-1.30
2023-04-05T21:23:57.303Z,-1.20
2023-04-05T21:26:24.771Z,-1.30
2023-04-05T21:28:52.448Z,-1.40
2023-04-05T21:31:19.992Z,-1.60
2023-04-05T21:33:47.617Z,-1.70
2023-04-05T21:36:15.723Z,-1.70
2023-04-05T21:38:43.156Z,-1.70
2023-04-05T21:41:10.949Z,-1.70
2023-04-05T21:43:38.514Z,-1.70
2023-04-05T21:46:06.052Z,-1.80
2023-04-05T21:48:33.507Z,-1.80
2023-04-05T21:51:00.970Z,-1.80
2023-04-05T21:53:28.492Z,-1.70
2023-04-05T21:55:56.055Z,-1.80
2023-04-05T21:58:23.631Z,-1.80
2023-04-05T22:00:51.118Z,-1.70
2023-04-05T22:03:18.763Z,-1.70
2023-04-05T22:05:46.340Z,-1.80
2023-04-05T22:08:13.814Z,-1.90
2023-04-05T22:10:41.400Z,-2.00
2023-04-05T22:13:08.930Z,-1.90
2023-04-05T22:15:37.701Z,-1.90
2023-04-05T22:18:05.887Z,-2.00
2023-04-05T22:20:33.489Z,-1.90
2023-04-05T22:23:01.306Z,-1.80
2023-04-05T22:25:28.874Z,-1.70
2023-04-05T22:28:02.466Z,-1.70
2023-04-05T22:30:40.892Z,-1.80
2023-04-05T22:33:08.604Z,-1.90
2023-04-05T22:35:36.471Z,-1.80
2023-04-05T22:38:04.098Z,-1.90
2023-04-05T22:40:31.622Z,-1.90
2023-04-05T22:42:59.128Z,-1.80
2023-04-05T22:45:26.964Z,-1.80
2023-04-05T22:47:54.725Z,-1.80
2023-04-05T22:50:22.381Z,-1.90
2023-04-05T22:52:49.866Z,-1.90
2023-04-05T22:55:17.503Z,-2.00
2023-04-05T22:57:45.000Z,-2.00
2023-04-05T23:00:13.334Z,-2.10
2023-04-05T23:02:40.949Z,-2.00
2023-04-05T23:05:09.458Z,-2.10
2023-04-05T23:07:37.009Z,-2.00
2023-04-05T23:10:05.034Z,-2.00
2023-04-05T23:12:32.565Z,-2.00
2023-04-05T23:15:00.111Z,-1.90
2023-04-05T23:17:27.759Z,-1.90
2023-04-05T23:19:55.272Z,-1.90
2023-04-05T23:22:22.745Z,-2.00
2023-04-05T23:24:50.216Z,-2.10
2023-04-05T23:27:17.687Z,-2.10
2023-04-05T23:29:45.178Z,-2.30
2023-04-05T23:32:13.808Z,-2.30
2023-04-05T23:34:41.588Z,-2.30
2023-04-05T23:37:09.113Z,-2.20
2023-04-05T23:39:37.058Z,-2.10
2023-04-05T23:42:04.944Z,-2.10
2023-04-05T23:44:32.528Z,-2.20
2023-04-05T23:47:00.126Z,-2.40
2023-04-05T23:49:28.258Z,-2.40
2023-04-05T23:51:56.040Z,-2.20
2023-04-05T23:54:24.081Z,-2.10
2023-04-05T23:56:51.719Z,-2.00
2023-04-05T23:59:19.293Z,-2.00
